Time;durP1;ratioP1;P1;durP2;ratioP2;P2;SDS_P1;SDS_P2;PMS_P1;PMS_P2;Temp;Humidity;BMP_temperature;BMP_pressure;BME280_temperature;BME280_humidity;BME280_pressure;Samples;Min_cycle;Max_cycle;Signal;HPM_P1;HPM_P2
2023/04/20 00:01:15;;;;;;;7.65;4.75;;;5.40;99.90;;;;;;5110671;27;20027;-63
2023/04/20 00:03:41;;;;;;;5.22;3.72;;;5.40;99.90;;;;;;5110409;28;20044;-63
2023/04/20 00:06:06;;;;;;;6.22;4.00;;;5.40;99.90;;;;;;5110160;28;20044;-63
2023/04/20 00:08:32;;;;;;;6.70;4.05;;;5.50;99.90;;;;;;5111509;27;20039;-65
2023/04/20 00:10:58;;;;;;;4.85;3.50;;;5.60;99.90;;;;;;5109390;27;20082;-64
2023/04/20 00:13:23;;;;;;;7.22;3.75;;;5.60;99.90;;;;;;5110137;27;20509;-61
2023/04/20 00:15:49;;;;;;;5.75;3.58;;;5.70;99.90;;;;;;5110413;28;20055;-63
2023/04/20 00:18:15;;;;;;;5.85;4.03;;;5.80;99.90;;;;;;5107844;28;20047;-64
2023/04/20 00:20:41;;;;;;;4.15;3.63;;;5.80;99.90;;;;;;5111125;28;20032;-64
2023/04/20 00:23:07;;;;;;;5.93;3.47;;;5.90;99.90;;;;;;5109729;28;20031;-65
2023/04/20 00:25:32;;;;;;;6.30;3.03;;;6.00;99.90;;;;;;5109886;28;20119;-63
2023/04/20 00:27:59;;;;;;;6.10;3.30;;;6.10;99.90;;;;;;5110355;27;20115;-63
2023/04/20 00:30:25;;;;;;;4.38;3.45;;;6.20;99.90;;;;;;5109321;28;20055;-63
2023/04/20 00:32:50;;;;;;;7.70;3.10;;;6.20;99.90;;;;;;5110330;27;20064;-63
2023/04/20 00:35:16;;;;;;;7.78;2.97;;;6.30;99.90;;;;;;5110940;28;20111;-61
2023/04/20 00:37:41;;;;;;;5.10;2.72;;;6.30;99.90;;;;;;5109888;28;20047;-63
2023/04/20 00:40:08;;;;;;;7.35;3.55;;;6.30;99.90;;;;;;5109192;28;20036;-62
2023/04/20 00:42:34;;;;;;;5.82;3.08;;;6.30;99.90;;;;;;5110005;28;20044;-64
2023/04/20 00:45:00;;;;;;;4.45;3.00;;;6.30;99.90;;;;;;5109989;28;20039;-62
2023/04/20 00:47:25;;;;;;;4.63;3.05;;;6.30;99.90;;;;;;5109462;28;20035;-62
2023/04/20 00:49:52;;;;;;;4.97;2.85;;;6.30;99.90;;;;;;5109799;28;20549;-63
2023/04/20 00:52:18;;;;;;;5.35;3.08;;;6.30;99.90;;;;;;5109056;28;20047;-63
2023/04/20 00:54:44;;;;;;;4.40;3.05;;;6.20;99.90;;;;;;5108847;28;20277;-63
2023/04/20 00:57:13;;;;;;;3.90;2.85;;;6.20;99.90;;;;;;5092393;28;20502;-62
2023/04/20 00:59:40;;;;;;;5.93;3.85;;;6.20;99.90;;;;;;5109772;28;20363;-63
2023/04/20 01:02:06;;;;;;;6.70;2.92;;;6.20;99.90;;;;;;5110200;28;20042;-62
2023/04/20 01:04:35;;;;;;;5.50;2.80;;;6.20;99.90;;;;;;5108297;28;20081;-63
2023/04/20 01:07:01;;;;;;;4.90;2.80;;;6.30;99.90;;;;;;5109793;28;20048;-63
2023/04/20 01:09:28;;;;;;;6.53;3.00;;;6.30;99.90;;;;;;5108534;28;20043;-63
2023/04/20 01:11:54;;;;;;;5.75;2.90;;;6.40;99.90;;;;;;5110534;28;20390;-61
2023/04/20 01:14:19;;;;;;;6.25;2.67;;;6.40;99.90;;;;;;5090549;28;20057;-63
2023/04/20 01:16:46;;;;;;;3.92;2.70;;;6.60;99.90;;;;;;5091430;28;20122;-62
2023/04/20 01:19:12;;;;;;;4.90;2.17;;;6.60;99.90;;;;;;5108417;28;20050;-62
2023/04/20 01:21:38;;;;;;;3.10;2.22;;;6.70;99.90;;;;;;5107846;28;20413;-64
2023/04/20 01:24:04;;;;;;;9.20;2.80;;;6.80;99.90;;;;;;5108743;28;20131;-63
2023/04/20 01:26:30;;;;;;;4.00;2.22;;;6.90;99.90;;;;;;5091425;28;20039;-63
2023/04/20 01:28:55;;;;;;;4.95;2.45;;;6.90;99.90;;;;;;5109485;28;20376;-63
2023/04/20 01:31:21;;;;;;;5.50;2.50;;;7.00;99.90;;;;;;5108663;28;20081;-64
2023/04/20 01:33:47;;;;;;;3.88;2.28;;;7.10;99.90;;;;;;5144023;27;20032;-63
2023/04/20 01:36:13;;;;;;;3.55;2.33;;;7.10;99.90;;;;;;5127486;28;20108;-62
2023/04/20 01:38:40;;;;;;;3.92;2.20;;;7.20;99.90;;;;;;5108669;28;20040;-61
2023/04/20 01:41:07;;;;;;;3.53;1.98;;;7.20;99.90;;;;;;5109129;28;20031;-63
2023/04/20 01:43:35;;;;;;;4.38;2.10;;;7.30;99.90;;;;;;5108269;28;20044;-62
2023/04/20 01:46:01;;;;;;;4.57;2.30;;;7.30;99.90;;;;;;5110352;28;20035;-63
2023/04/20 01:48:27;;;;;;;5.90;2.10;;;7.40;99.90;;;;;;5109789;28;20046;-64
2023/04/20 01:50:53;;;;;;;2.88;1.90;;;7.50;99.90;;;;;;5110103;28;20028;-63
2023/04/20 01:53:19;;;;;;;3.38;2.17;;;7.50;99.90;;;;;;5108083;28;20031;-61
2023/04/20 01:55:44;;;;;;;3.15;2.00;;;7.60;99.90;;;;;;5108648;28;20398;-63
2023/04/20 01:58:10;;;;;;;2.65;1.90;;;7.60;99.90;;;;;;5111917;28;20043;-63
2023/04/20 02:00:36;;;;;;;6.45;1.92;;;7.70;99.90;;;;;;5108496;28;20031;-63
2023/04/20 02:03:02;;;;;;;3.03;1.98;;;7.70;99.90;;;;;;5111299;28;20398;-63
2023/04/20 02:05:27;;;;;;;4.47;1.98;;;7.80;99.90;;;;;;5112140;28;20038;-63
2023/04/20 02:07:53;;;;;;;6.88;2.00;;;7.80;99.90;;;;;;5112610;27;20035;-62
2023/04/20 02:10:19;;;;;;;5.10;2.00;;;7.80;99.90;;;;;;5112992;28;20391;-63
2023/04/20 02:12:45;;;;;;;3.33;1.90;;;7.80;99.90;;;;;;5117328;27;20047;-63
2023/04/20 02:15:10;;;;;;;3.55;2.17;;;7.90;99.90;;;;;;5116035;27;20071;-62
2023/04/20 02:17:36;;;;;;;4.47;1.90;;;7.90;99.90;;;;;;5115986;27;20042;-64
2023/04/20 02:20:06;;;;;;;4.93;2.25;;;7.90;99.90;;;;;;5098698;27;20031;-63
2023/04/20 02:22:33;;;;;;;4.63;1.90;;;7.90;99.90;;;;;;5115772;27;20031;-62
2023/04/20 02:25:00;;;;;;;4.95;1.98;;;7.90;99.90;;;;;;5115313;27;20115;-62
2023/04/20 02:27:27;;;;;;;2.97;1.83;;;7.80;99.90;;;;;;5115697;27;20042;-63
2023/04/20 02:29:52;;;;;;;5.13;2.20;;;7.80;99.90;;;;;;5115464;27;20487;-63
2023/04/20 02:32:18;;;;;;;2.63;1.70;;;7.80;99.90;;;;;;5099216;27;20062;-63
2023/04/20 02:34:44;;;;;;;4.50;2.08;;;7.80;99.90;;;;;;5115306;27;20393;-61
2023/04/20 02:37:09;;;;;;;2.53;1.80;;;7.70;99.90;;;;;;5115242;27;20524;-63
2023/04/20 02:39:35;;;;;;;5.57;1.70;;;7.70;99.90;;;;;;5119009;27;20125;-62
2023/04/20 02:42:01;;;;;;;6.25;1.95;;;7.70;99.90;;;;;;5154393;27;20035;-63
2023/04/20 02:44:26;;;;;;;3.10;2.13;;;7.70;99.90;;;;;;5154728;27;20087;-63
2023/04/20 02:46:52;;;;;;;6.20;1.88;;;7.70;99.90;;;;;;5149771;27;20394;-63
2023/04/20 02:49:18;;;;;;;3.15;1.90;;;7.70;99.90;;;;;;5133620;27;20161;-63
2023/04/20 02:51:43;;;;;;;5.65;2.10;;;7.70;99.90;;;;;;5115198;27;20047;-63
2023/04/20 02:54:09;;;;;;;2.92;1.73;;;7.70;99.90;;;;;;5115370;27;20035;-63
2023/04/20 02:56:34;;;;;;;5.97;2.10;;;7.60;99.90;;;;;;5131861;27;20039;-64
2023/04/20 02:59:00;;;;;;;8.38;2.80;;;7.60;99.90;;;;;;5157623;27;20412;-64
2023/04/20 03:01:26;;;;;;;2.80;1.95;;;7.60;99.90;;;;;;5136098;27;20030;-63
2023/04/20 03:03:51;;;;;;;7.20;2.30;;;7.60;99.90;;;;;;5136653;27;20035;-63
2023/04/20 03:06:17;;;;;;;2.53;1.90;;;7.50;99.90;;;;;;5115583;27;20027;-64
2023/04/20 03:08:43;;;;;;;4.97;2.05;;;7.50;99.90;;;;;;5113923;27;20047;-64
2023/04/20 03:11:08;;;;;;;5.63;2.70;;;7.40;99.90;;;;;;5113601;27;20478;-65
2023/04/20 03:13:35;;;;;;;6.53;2.00;;;7.40;99.90;;;;;;5113622;27;20051;-63
2023/04/20 03:16:00;;;;;;;6.78;2.00;;;7.40;99.90;;;;;;5114505;27;20055;-64
2023/04/20 03:18:26;;;;;;;5.80;2.10;;;7.40;99.90;;;;;;5114279;27;20039;-63
2023/04/20 03:20:52;;;;;;;4.30;1.83;;;7.40;99.90;;;;;;5114654;27;20072;-64
2023/04/20 03:23:17;;;;;;;5.75;1.80;;;7.40;99.90;;;;;;5115132;27;20035;-64
2023/04/20 03:25:45;;;;;;;5.10;1.95;;;7.40;99.90;;;;;;5114834;27;20034;-63
2023/04/20 03:28:10;;;;;;;7.53;1.90;;;7.40;99.90;;;;;;5114469;27;20054;-63
2023/04/20 03:30:36;;;;;;;4.20;1.88;;;7.50;99.90;;;;;;5114310;27;20041;-62
2023/04/20 03:33:02;;;;;;;4.40;1.70;;;7.50;99.90;;;;;;5114792;27;20046;-64
2023/04/20 03:35:27;;;;;;;5.30;2.10;;;7.60;99.90;;;;;;5114192;27;20038;-64
2023/04/20 03:37:53;;;;;;;4.90;1.67;;;7.60;99.90;;;;;;5114598;27;20035;-63
2023/04/20 03:40:18;;;;;;;2.95;1.70;;;7.60;99.90;;;;;;5114009;27;20371;-64
2023/04/20 03:42:44;;;;;;;3.97;2.05;;;7.70;99.90;;;;;;5114288;27;20031;-64
2023/04/20 03:45:11;;;;;;;4.55;1.70;;;7.70;99.90;;;;;;5114557;27;20655;-63
2023/04/20 03:47:36;;;;;;;3.78;1.85;;;7.80;99.90;;;;;;5132487;27;20032;-64
2023/04/20 03:50:03;;;;;;;3.75;1.90;;;7.80;99.90;;;;;;5114115;27;20035;-63
2023/04/20 03:52:28;;;;;;;3.63;1.63;;;7.80;99.90;;;;;;5113804;27;20039;-63
2023/04/20 03:54:54;;;;;;;3.65;2.15;;;7.80;99.90;;;;;;5114520;27;20049;-64
2023/04/20 03:57:20;;;;;;;4.63;2.00;;;7.80;99.90;;;;;;5114306;27;20043;-65
2023/04/20 03:59:45;;;;;;;4.85;2.25;;;7.90;99.90;;;;;;5113712;27;20042;-63
2023/04/20 04:02:12;;;;;;;7.95;1.90;;;7.90;99.90;;;;;;5113733;27;20046;-63
2023/04/20 04:04:38;;;;;;;3.58;1.98;;;7.90;99.90;;;;;;5113653;27;20442;-64
2023/04/20 04:07:04;;;;;;;4.90;1.92;;;8.00;99.90;;;;;;5114144;27;20062;-63
2023/04/20 04:09:29;;;;;;;3.15;1.88;;;8.00;99.90;;;;;;5113350;27;20038;-64
2023/04/20 04:11:56;;;;;;;4.18;2.25;;;8.00;99.90;;;;;;5113648;27;20390;-64
2023/04/20 04:14:22;;;;;;;13.23;2.28;;;8.00;99.90;;;;;;5096076;27;20059;-63
2023/04/20 04:16:47;;;;;;;4.47;1.83;;;8.00;99.90;;;;;;5112690;27;20092;-62
2023/04/20 04:19:13;;;;;;;4.85;2.00;;;8.00;99.90;;;;;;5110609;27;20055;-62
2023/04/20 04:21:39;;;;;;;5.65;2.28;;;8.00;99.90;;;;;;5112649;27;20070;-65
2023/04/20 04:24:06;;;;;;;4.68;1.83;;;8.00;99.90;;;;;;5114343;27;20499;-64
2023/04/20 04:26:32;;;;;;;4.50;1.80;;;8.00;99.90;;;;;;5131188;27;20530;-64
2023/04/20 04:28:58;;;;;;;4.38;1.80;;;7.90;99.90;;;;;;5093746;27;20043;-63
2023/04/20 04:31:24;;;;;;;4.57;1.75;;;7.90;99.90;;;;;;5133243;27;20039;-63
2023/04/20 04:33:50;;;;;;;2.80;1.83;;;7.90;99.90;;;;;;5112895;27;20370;-64
2023/04/20 04:36:16;;;;;;;5.63;2.30;;;7.80;99.90;;;;;;5113417;27;20054;-63
2023/04/20 04:38:45;;;;;;;4.97;2.10;;;7.80;99.90;;;;;;5112503;27;20042;-64
2023/04/20 04:41:14;;;;;;;4.85;2.03;;;7.70;99.90;;;;;;5112255;27;20063;-64
2023/04/20 04:43:41;;;;;;;4.47;2.00;;;7.70;99.90;;;;;;5131043;27;20039;-64
2023/04/20 04:46:11;;;;;;;6.43;2.20;;;7.60;99.90;;;;;;5113109;27;20112;-64
2023/04/20 04:48:37;;;;;;;4.82;2.58;;;7.50;99.90;;;;;;5133374;27;20554;-65
2023/04/20 04:51:03;;;;;;;5.50;2.10;;;7.50;99.90;;;;;;5110613;27;20050;-63
2023/04/20 04:53:29;;;;;;;4.82;1.98;;;7.40;99.90;;;;;;5125560;27;20035;-65
2023/04/20 04:55:55;;;;;;;4.85;2.28;;;7.30;99.90;;;;;;5109037;27;20094;-63
2023/04/20 04:58:20;;;;;;;7.53;2.65;;;7.20;99.90;;;;;;5111933;27;20078;-62
2023/04/20 05:00:47;;;;;;;3.53;2.17;;;7.20;99.90;;;;;;5091840;27;20038;-63
2023/04/20 05:03:12;;;;;;;5.88;2.30;;;7.20;99.90;;;;;;5129198;27;20035;-64
2023/04/20 05:05:38;;;;;;;4.20;2.38;;;7.10;99.90;;;;;;5111609;27;20042;-64
2023/04/20 05:08:04;;;;;;;5.45;2.80;;;7.10;99.90;;;;;;5095256;27;20073;-63
2023/04/20 05:10:29;;;;;;;4.50;2.47;;;7.10;99.90;;;;;;5130705;27;20409;-64
2023/04/20 05:12:57;;;;;;;4.70;2.40;;;7.10;99.90;;;;;;5110223;27;20071;-64
2023/04/20 05:15:23;;;;;;;10.15;2.85;;;7.10;99.90;;;;;;5110966;27;20076;-64
2023/04/20 05:17:49;;;;;;;6.57;2.50;;;7.10;99.90;;;;;;5108483;27;20047;-63
2023/04/20 05:20:14;;;;;;;6.15;2.40;;;7.10;99.90;;;;;;5110437;27;20043;-63
2023/04/20 05:22:40;;;;;;;6.07;2.35;;;7.10;99.90;;;;;;5095925;27;20043;-64
2023/04/20 05:25:07;;;;;;;4.82;2.55;;;7.20;99.90;;;;;;5111412;27;20046;-63
2023/04/20 05:27:33;;;;;;;6.20;2.50;;;7.20;99.90;;;;;;5094802;27;20439;-64
2023/04/20 05:29:58;;;;;;;4.03;2.20;;;7.20;99.90;;;;;;5110032;27;20047;-64
2023/04/20 05:32:24;;;;;;;4.22;2.65;;;7.20;99.90;;;;;;5111761;27;20066;-63
2023/04/20 05:34:50;;;;;;;6.15;2.45;;;7.30;99.90;;;;;;5111763;27;20135;-63
2023/04/20 05:37:16;;;;;;;5.53;2.33;;;7.30;99.90;;;;;;5111344;27;20035;-64
2023/04/20 05:39:42;;;;;;;6.10;2.58;;;7.30;99.90;;;;;;5116432;27;20062;-64
2023/04/20 05:42:07;;;;;;;5.38;2.58;;;7.30;99.90;;;;;;5115471;27;20595;-64
2023/04/20 05:44:35;;;;;;;3.65;2.03;;;7.30;99.90;;;;;;5112306;27;20035;-63
2023/04/20 05:47:05;;;;;;;5.80;2.65;;;7.30;99.90;;;;;;5119864;27;20394;-63
2023/04/20 05:49:31;;;;;;;7.38;2.38;;;7.30;99.90;;;;;;5134052;27;20067;-63
2023/04/20 05:51:57;;;;;;;4.18;2.03;;;7.30;99.90;;;;;;5098028;27;20035;-63
2023/04/20 05:54:23;;;;;;;6.70;2.20;;;7.30;99.90;;;;;;5115145;27;20069;-64
2023/04/20 05:56:49;;;;;;;5.07;2.05;;;7.30;99.90;;;;;;5111777;27;20062;-62
2023/04/20 05:59:16;;;;;;;5.10;2.10;;;7.30;99.90;;;;;;5132750;27;20042;-64
2023/04/20 06:01:41;;;;;;;3.88;2.17;;;7.30;99.90;;;;;;5150784;27;20039;-63
2023/04/20 06:04:07;;;;;;;4.65;2.30;;;7.30;99.90;;;;;;5136355;27;20395;-66
2023/04/20 06:06:33;;;;;;;4.20;2.47;;;7.40;99.90;;;;;;5122501;27;20035;-64
2023/04/20 06:08:59;;;;;;;5.90;2.40;;;7.40;99.90;;;;;;5119915;27;20414;-64
2023/04/20 06:11:24;;;;;;;6.28;2.40;;;7.40;99.90;;;;;;5120516;27;20409;-64
2023/04/20 06:13:50;;;;;;;3.83;2.22;;;7.30;99.90;;;;;;5113846;27;20075;-64
2023/04/20 06:16:16;;;;;;;5.82;2.22;;;7.40;99.90;;;;;;5115575;27;20449;-63
2023/04/20 06:18:41;;;;;;;4.95;2.22;;;7.30;99.90;;;;;;5131873;27;20039;-64
2023/04/20 06:21:10;;;;;;;7.20;2.03;;;7.30;99.90;;;;;;5116822;27;20063;-64
2023/04/20 06:23:36;;;;;;;3.67;2.10;;;7.30;99.90;;;;;;5114947;27;20094;-64
2023/04/20 06:26:03;;;;;;;6.18;2.45;;;7.30;99.90;;;;;;5097634;27;20043;-62
2023/04/20 06:28:29;;;;;;;6.30;2.22;;;7.30;99.90;;;;;;5132551;27;20042;-63
2023/04/20 06:30:54;;;;;;;4.00;2.20;;;7.30;99.90;;;;;;5114176;27;20035;-65
2023/04/20 06:33:20;;;;;;;3.33;2.30;;;7.30;99.90;;;;;;5097630;27;20670;-65
2023/04/20 06:35:46;;;;;;;6.20;2.25;;;7.30;99.90;;;;;;5133242;27;20454;-64
2023/04/20 06:38:11;;;;;;;11.07;2.50;;;7.20;99.90;;;;;;5115667;27;20035;-64
2023/04/20 06:40:37;;;;;;;5.72;2.63;;;7.20;99.90;;;;;;5114953;27;20396;-64
2023/04/20 06:43:02;;;;;;;3.85;2.40;;;7.20;99.90;;;;;;5116537;27;20393;-63
2023/04/20 06:45:28;;;;;;;5.60;2.38;;;7.10;99.90;;;;;;5110501;27;20038;-65
2023/04/20 06:47:54;;;;;;;4.60;3.10;;;7.00;99.90;;;;;;5114871;27;20054;-65
2023/04/20 06:50:20;;;;;;;5.70;2.63;;;6.80;99.90;;;;;;5115212;27;20424;-63
2023/04/20 06:52:47;;;;;;;3.40;2.25;;;6.70;99.90;;;;;;5111556;27;20425;-63
2023/04/20 06:55:13;;;;;;;3.85;2.40;;;6.70;99.90;;;;;;5112797;27;20042;-65
2023/04/20 06:57:38;;;;;;;4.55;2.70;;;6.60;99.90;;;;;;5130522;27;20035;-64
2023/04/20 07:00:07;;;;;;;5.38;2.83;;;6.50;99.90;;;;;;5143407;27;20400;-64
2023/04/20 07:02:47;;;;;;;5.10;3.38;;;6.40;99.90;;;;;;5115544;27;20477;-63
2023/04/20 07:05:14;;;;;;;4.18;2.47;;;6.40;99.90;;;;;;5114766;27;20075;-65
2023/04/20 07:07:40;;;;;;;4.03;2.50;;;6.40;99.90;;;;;;5114817;27;20062;-64
2023/04/20 07:10:08;;;;;;;8.00;2.85;;;6.30;99.90;;;;;;5114852;27;20468;-64
2023/04/20 07:12:37;;;;;;;4.53;3.00;;;6.30;99.90;;;;;;5133400;27;20196;-62
2023/04/20 07:15:04;;;;;;;3.72;2.55;;;6.40;99.90;;;;;;5132921;27;20047;-64
2023/04/20 07:17:30;;;;;;;4.93;2.78;;;6.40;99.90;;;;;;5113695;27;20096;-63
2023/04/20 07:19:57;;;;;;;3.90;2.97;;;6.30;99.90;;;;;;5114951;27;20031;-65
2023/04/20 07:22:24;;;;;;;5.03;2.55;;;6.30;99.90;;;;;;5114715;27;20441;-65
2023/04/20 07:24:50;;;;;;;5.57;3.05;;;6.40;99.90;;;;;;5115039;27;20363;-64
2023/04/20 07:27:16;;;;;;;6.38;2.58;;;6.30;99.90;;;;;;5114576;27;20058;-63
2023/04/20 07:29:42;;;;;;;5.63;2.90;;;6.30;99.90;;;;;;5133042;27;20489;-64
2023/04/20 07:32:08;;;;;;;5.00;2.83;;;6.30;99.90;;;;;;5116709;27;20110;-64
2023/04/20 07:34:33;;;;;;;5.78;3.10;;;6.40;99.90;;;;;;5114044;27;20493;-62
2023/04/20 07:36:59;;;;;;;4.57;3.03;;;6.40;99.90;;;;;;5114206;27;20039;-64
2023/04/20 07:39:27;;;;;;;5.45;2.90;;;6.50;99.90;;;;;;5114336;27;20075;-63
2023/04/20 07:41:53;;;;;;;7.25;3.20;;;6.60;99.90;;;;;;5114499;27;20047;-63
2023/04/20 07:44:19;;;;;;;6.50;3.20;;;6.60;99.90;;;;;;5114285;27;20047;-63
2023/04/20 07:46:44;;;;;;;5.38;2.60;;;6.70;99.90;;;;;;5114367;27;20027;-62
2023/04/20 07:49:10;;;;;;;6.25;2.92;;;6.70;99.90;;;;;;5114211;27;20565;-65
2023/04/20 07:51:35;;;;;;;6.25;3.13;;;6.70;99.90;;;;;;5114699;27;20114;-64
2023/04/20 07:54:01;;;;;;;4.40;2.90;;;6.80;99.90;;;;;;5132888;27;20118;-64
2023/04/20 07:56:27;;;;;;;4.95;3.00;;;6.90;99.90;;;;;;5114059;27;20068;-64
2023/04/20 07:58:52;;;;;;;4.63;3.00;;;6.90;99.90;;;;;;5114184;27;20066;-64
2023/04/20 08:01:23;;;;;;;5.95;3.25;;;7.00;99.90;;;;;;5113274;27;20467;-64
2023/04/20 08:03:48;;;;;;;4.20;3.22;;;7.10;99.90;;;;;;5114068;27;20035;-63
2023/04/20 08:06:14;;;;;;;6.95;3.03;;;7.10;99.90;;;;;;5113926;27;20047;-64
2023/04/20 08:08:40;;;;;;;5.78;3.10;;;7.10;99.90;;;;;;5096881;27;20043;-64
2023/04/20 08:11:07;;;;;;;6.97;3.58;;;7.20;99.90;;;;;;5114084;27;20452;-64
2023/04/20 08:13:33;;;;;;;6.68;3.40;;;7.20;99.90;;;;;;5113762;27;20047;-62
2023/04/20 08:15:58;;;;;;;6.30;3.70;;;7.30;99.90;;;;;;5113600;27;20047;-65
2023/04/20 08:18:24;;;;;;;5.47;3.70;;;7.40;99.90;;;;;;5113513;27;20046;-63
2023/04/20 08:20:50;;;;;;;7.28;3.50;;;7.60;99.90;;;;;;5113740;27;20383;-64
2023/04/20 08:23:16;;;;;;;7.82;3.92;;;7.80;99.90;;;;;;5132280;27;20035;-62
2023/04/20 08:25:41;;;;;;;5.00;3.17;;;8.00;99.90;;;;;;5113605;27;20031;-64
2023/04/20 08:28:07;;;;;;;6.68;3.25;;;8.20;99.90;;;;;;5113932;27;20452;-64
2023/04/20 08:30:33;;;;;;;8.05;3.65;;;8.30;99.90;;;;;;5113621;27;20046;-64
2023/04/20 08:32:58;;;;;;;6.28;3.55;;;8.30;99.90;;;;;;5113551;27;20469;-63
2023/04/20 08:35:24;;;;;;;7.78;3.70;;;8.30;99.90;;;;;;5128488;27;20046;-65
2023/04/20 08:37:50;;;;;;;6.30;3.60;;;8.30;99.90;;;;;;5131324;27;20037;-64
2023/04/20 08:40:19;;;;;;;6.45;3.72;;;8.30;99.90;;;;;;5131554;27;20031;-63
2023/04/20 08:42:45;;;;;;;6.18;3.50;;;8.40;99.90;;;;;;5112760;27;20035;-63
2023/04/20 08:45:12;;;;;;;6.80;3.85;;;8.40;99.90;;;;;;5113039;27;20046;-64
2023/04/20 08:47:38;;;;;;;7.53;4.00;;;8.40;99.90;;;;;;5113000;27;20505;-63
2023/04/20 08:50:04;;;;;;;9.95;3.70;;;8.40;99.90;;;;;;5131350;27;20145;-64
2023/04/20 08:52:31;;;;;;;6.63;3.70;;;8.40;99.90;;;;;;5112825;27;20042;-63
2023/04/20 08:54:57;;;;;;;7.25;4.05;;;8.30;99.90;;;;;;5095645;27;20043;-64
2023/04/20 08:57:22;;;;;;;9.82;4.30;;;8.30;99.90;;;;;;5112702;27;20043;-63
2023/04/20 08:59:48;;;;;;;7.38;4.35;;;8.40;99.90;;;;;;5112591;27;20402;-63
2023/04/20 09:02:14;;;;;;;7.90;3.60;;;8.40;99.90;;;;;;5112355;27;20051;-64
2023/04/20 09:04:43;;;;;;;7.75;4.10;;;8.40;99.90;;;;;;5112634;27;20121;-66
2023/04/20 09:07:21;;;;;;;6.00;3.95;;;8.50;99.90;;;;;;5094853;27;20090;-65
2023/04/20 09:09:57;;;;;;;7.97;3.72;;;8.50;99.90;;;;;;5131241;27;20118;-64
2023/04/20 09:12:23;;;;;;;8.80;4.35;;;8.50;99.90;;;;;;5112850;27;20035;-64
2023/04/20 09:14:50;;;;;;;6.60;4.15;;;8.40;99.90;;;;;;5112412;27;20397;-64
2023/04/20 09:17:30;;;;;;;5.15;3.70;;;8.50;99.90;;;;;;5112897;27;20047;-64
2023/04/20 09:19:55;;;;;;;7.65;4.07;;;8.50;99.90;;;;;;5112653;27;20031;-64
2023/04/20 09:22:32;;;;;;;7.13;3.97;;;8.60;99.90;;;;;;5095855;27;20047;-63
2023/04/20 09:24:59;;;;;;;5.50;3.78;;;8.60;99.90;;;;;;5112918;27;20039;-63
2023/04/20 09:27:25;;;;;;;10.18;4.35;;;8.60;99.90;;;;;;5112938;27;20043;-63
2023/04/20 09:30:00;;;;;;;7.50;4.07;;;8.60;99.90;;;;;;5112586;27;20120;-62
2023/04/20 09:32:27;;;;;;;6.45;4.53;;;8.70;99.90;;;;;;5112741;27;20417;-64
2023/04/20 09:34:53;;;;;;;8.35;4.85;;;8.70;99.90;;;;;;5112763;27;20482;-64
2023/04/20 09:37:21;;;;;;;7.38;3.88;;;8.90;99.90;;;;;;5131035;27;20114;-64
2023/04/20 09:39:47;;;;;;;8.70;3.95;;;9.00;99.90;;;;;;5112662;27;20043;-62
2023/04/20 09:42:15;;;;;;;5.00;4.05;;;9.10;99.90;;;;;;5095528;27;20046;-64
2023/04/20 09:44:42;;;;;;;5.90;4.22;;;9.00;99.90;;;;;;5112575;27;20104;-64
2023/04/20 09:47:08;;;;;;;8.23;4.68;;;9.00;99.90;;;;;;5113009;27;20505;-64
2023/04/20 09:49:34;;;;;;;6.72;4.07;;;9.10;99.90;;;;;;5112686;27;20063;-65
2023/04/20 09:52:04;;;;;;;7.50;3.63;;;9.20;99.90;;;;;;5112258;27;20047;-64
2023/04/20 09:54:30;;;;;;;6.38;4.40;;;9.30;99.90;;;;;;5112535;27;20039;-63
2023/04/20 09:56:58;;;;;;;8.48;4.53;;;9.30;99.90;;;;;;5130727;27;20035;-65
2023/04/20 09:59:26;;;;;;;6.97;4.70;;;9.40;99.90;;;;;;5112462;27;20035;-64
2023/04/20 10:01:52;;;;;;;5.70;4.40;;;9.50;99.90;;;;;;5112435;27;20039;-63
2023/04/20 10:04:17;;;;;;;6.13;4.28;;;9.70;99.90;;;;;;5112402;27;20058;-62
2023/04/20 10:06:54;;;;;;;6.57;4.22;;;9.90;99.90;;;;;;5112492;28;20075;-66
2023/04/20 10:09:23;;;;;;;5.57;4.35;;;10.00;99.90;;;;;;5112508;27;20044;-63
2023/04/20 10:11:49;;;;;;;7.72;3.92;;;9.90;99.90;;;;;;5130839;27;20084;-63
2023/04/20 10:14:22;;;;;;;7.43;4.55;;;9.90;99.90;;;;;;5130565;27;20123;-64
2023/04/20 10:16:58;;;;;;;8.75;4.75;;;10.00;99.90;;;;;;5130749;27;20058;-64
2023/04/20 10:19:23;;;;;;;8.00;4.43;;;10.10;99.90;;;;;;5112613;27;20039;-63
2023/04/20 10:21:50;;;;;;;6.18;4.80;;;10.20;99.90;;;;;;5130715;27;20027;-63
2023/04/20 10:24:28;;;;;;;6.75;4.70;;;10.30;99.90;;;;;;5097690;27;20043;-65
2023/04/20 10:26:54;;;;;;;6.93;4.63;;;10.50;99.90;;;;;;5112632;27;20478;-64
2023/04/20 10:29:24;;;;;;;7.57;5.85;;;10.70;99.90;;;;;;5133908;27;20031;-64
2023/04/20 10:31:50;;;;;;;8.70;4.88;;;10.80;99.90;;;;;;5115315;27;20035;-64
2023/04/20 10:34:17;;;;;;;7.35;4.75;;;10.80;99.90;;;;;;5098253;27;20036;-65
2023/04/20 10:36:43;;;;;;;6.75;4.80;;;10.80;99.90;;;;;;5133793;27;20062;-64
2023/04/20 10:39:20;;;;;;;6.68;4.30;;;10.80;99.90;;;;;;5133881;27;20046;-66
2023/04/20 10:41:53;;;;;;;8.80;4.60;;;10.70;99.90;;;;;;5133694;27;20039;-64
2023/04/20 10:44:20;;;;;;;6.63;5.00;;;10.60;99.90;;;;;;5114913;27;20047;-63
2023/04/20 10:46:50;;;;;;;7.40;5.18;;;10.60;99.90;;;;;;5133552;27;20034;-64
2023/04/20 10:49:17;;;;;;;7.00;5.25;;;10.60;99.90;;;;;;5115121;27;20042;-64
2023/04/20 10:51:49;;;;;;;8.32;5.10;;;10.60;99.90;;;;;;5133991;27;20035;-64
2023/04/20 10:54:15;;;;;;;;;;;10.70;99.90;;;;;;5133991;27;20046;-63
2023/04/20 10:56:50;;;;;;;7.10;5.13;;;10.60;99.90;;;;;;5115099;27;19919;-64
2023/04/20 10:59:23;;;;;;;6.40;5.47;;;10.60;99.90;;;;;;5114902;27;20038;-63
2023/04/20 11:01:50;;;;;;;7.10;5.95;;;10.60;99.90;;;;;;5115516;27;20463;-65
2023/04/20 11:04:16;;;;;;;8.25;5.53;;;10.60;99.90;;;;;;5114840;27;20122;-64
2023/04/20 11:06:44;;;;;;;12.45;6.07;;;10.60;99.90;;;;;;5098168;27;20110;-64
2023/04/20 11:09:22;;;;;;;9.25;6.28;;;10.60;99.90;;;;;;5115042;27;20047;-63
2023/04/20 11:12:04;;;;;;;7.35;6.00;;;11.00;99.90;;;;;;5115205;27;20046;-65
2023/04/20 11:14:31;;;;;;;7.90;5.70;;;11.50;99.90;;;;;;5111331;28;20062;-64
2023/04/20 11:16:57;;;;;;;7.68;6.20;;;11.70;99.90;;;;;;5111521;27;20051;-63
2023/04/20 11:19:28;;;;;;;7.40;5.72;;;11.80;99.90;;;;;;5094026;28;20063;-64
2023/04/20 11:21:54;;;;;;;6.85;5.50;;;12.00;99.90;;;;;;5110585;28;20039;-64
2023/04/20 11:24:21;;;;;;;7.53;5.65;;;12.00;99.90;;;;;;5110852;28;20081;-64
2023/04/20 11:26:49;;;;;;;8.18;5.70;;;11.90;99.90;;;;;;5110599;28;20035;-64
2023/04/20 11:29:27;;;;;;;7.78;5.63;;;12.00;99.90;;;;;;5111021;28;20126;-64
2023/04/20 11:31:53;;;;;;;6.05;5.45;;;12.60;99.90;;;;;;5111147;28;20379;-64
2023/04/20 11:34:20;;;;;;;5.90;4.97;;;12.90;99.90;;;;;;5109897;28;20073;-64
2023/04/20 11:36:45;;;;;;;7.00;5.82;;;12.90;99.90;;;;;;5110223;28;20520;-65
2023/04/20 11:39:15;;;;;;;9.23;6.03;;;12.70;99.90;;;;;;5110319;28;20039;-64
2023/04/20 11:41:41;;;;;;;8.38;6.22;;;12.60;99.90;;;;;;5110149;28;20156;-63
2023/04/20 11:44:07;;;;;;;8.05;5.90;;;12.50;99.90;;;;;;5110711;28;20445;-64
2023/04/20 11:46:36;;;;;;;7.05;5.85;;;12.50;99.90;;;;;;5108757;28;20072;-62
2023/04/20 11:49:03;;;;;;;7.57;6.30;;;12.40;99.90;;;;;;5110015;28;20058;-63
2023/04/20 11:51:30;;;;;;;8.43;6.28;;;12.20;99.90;;;;;;5110886;28;20429;-64
2023/04/20 11:53:55;;;;;;;8.70;6.22;;;12.00;99.90;;;;;;5121824;27;20118;-64
2023/04/20 11:56:22;;;;;;;8.35;5.97;;;12.20;99.90;;;;;;5099945;28;20175;-63
2023/04/20 11:58:47;;;;;;;7.97;6.60;;;12.40;99.90;;;;;;5110753;28;20036;-64
2023/04/20 12:01:13;;;;;;;7.93;6.20;;;12.40;99.90;;;;;;5111913;28;20036;-64
2023/04/20 12:03:39;;;;;;;8.93;6.18;;;12.30;99.90;;;;;;5110827;28;20110;-63
2023/04/20 12:06:05;;;;;;;11.25;6.72;;;12.20;99.90;;;;;;5110838;28;20505;-63
2023/04/20 12:08:31;;;;;;;7.30;6.25;;;12.10;99.90;;;;;;5111887;28;20389;-65
2023/04/20 12:10:57;;;;;;;8.85;5.70;;;12.10;99.90;;;;;;5110627;28;20071;-63
2023/04/20 12:13:23;;;;;;;6.63;5.93;;;12.00;99.90;;;;;;5110503;28;20133;-63
2023/04/20 12:15:48;;;;;;;7.30;6.15;;;11.80;99.90;;;;;;5110204;28;20517;-63
2023/04/20 12:18:14;;;;;;;10.70;6.60;;;11.80;99.90;;;;;;5106627;28;20377;-64
2023/04/20 12:20:39;;;;;;;6.93;6.07;;;11.80;99.90;;;;;;5111322;28;20390;-63
2023/04/20 12:23:05;;;;;;;7.70;6.25;;;11.90;99.90;;;;;;5111422;28;20044;-64
2023/04/20 12:25:31;;;;;;;9.40;6.47;;;12.10;99.90;;;;;;5109942;28;20054;-63
2023/04/20 12:27:56;;;;;;;8.75;6.80;;;12.30;99.90;;;;;;5131849;27;20054;-62
2023/04/20 12:30:22;;;;;;;9.68;6.85;;;12.60;99.90;;;;;;5131552;27;20549;-65
2023/04/20 12:32:48;;;;;;;9.05;6.75;;;12.90;99.90;;;;;;5130168;27;20031;-65
2023/04/20 12:35:13;;;;;;;9.15;6.95;;;12.80;99.90;;;;;;5126927;27;20074;-65
2023/04/20 12:37:39;;;;;;;9.15;6.63;;;12.50;99.90;;;;;;5109521;28;20470;-62
2023/04/20 12:40:06;;;;;;;9.23;6.68;;;12.20;99.90;;;;;;5109885;28;20051;-63
2023/04/20 12:42:31;;;;;;;9.52;7.10;;;12.10;99.90;;;;;;5110914;28;20084;-63
2023/04/20 12:44:57;;;;;;;7.65;6.70;;;11.90;99.90;;;;;;5109593;28;20040;-64
2023/04/20 12:47:23;;;;;;;7.47;6.78;;;12.10;99.90;;;;;;5108947;28;20043;-64
2023/04/20 12:49:48;;;;;;;8.93;7.13;;;12.40;99.90;;;;;;5109063;28;20075;-64
2023/04/20 12:52:14;;;;;;;7.47;6.57;;;12.50;99.90;;;;;;5110118;28;20130;-62